Alpha, IL (61413)

1:25 PM CST on February 13, 2016 (GMT -0600)
Lundeen Farms | | Change Station
CLOSE
Current Station
Personal Weather Station
Location: Altona, IL
Elevation: 755 ft
Nearby Weather Stations
Active Advisory: Winter Weather Advisory

Elev 755 ft 41.13 °N, 90.18 °W | Updated 4 minutes ago

Clear
Clear
23.2 °F
Feels Like 15 °F
N
7.3
Wind Variable Wind from ENE

Today
High -- | Low -- °F
--% Chance of Precip.
Yesterday
High -- | Low -- °F
Precip. -- in
Pressure 30.57 in
Visibility 10.0 miles
Clouds Clear
Windchill 15 °F
Dew Point -2 °F
Humidity 33%
Rainfall 0.00 in
Snow Depth Not available.
6:59 AM 5:32 PM
Waxing Crescent, 33% visible
METAR KGBG 131915Z AUTO 34004KT 10SM CLR M08/M20 A3057 RMK AO2 T10821204
Pressure 30.57 in
Visibility 10.0 miles
Clouds Clear
Windchill 15 °F
Dew Point -2 °F
Humidity 33%
Rainfall 0.00 in
Snow Depth Not available.
6:59 AM 5:32 PM
Waxing Crescent, 33% visible
METAR KGBG 131915Z AUTO 34004KT 10SM CLR M08/M20 A3057 RMK AO2 T10821204

10-Day Weather Forecast

Almanac

Astronomy

Feb. 13, 2016 Rise Set
Actual Time
Civil Twilight
Nautical Twilight
Astronomical Twilight
Moon
Length of Visible Light
Length of Day
Tomorrow will be .
, % of the Moon is Illuminated

Today's Extremes

State Highs State Lows

Community

WunderPhotos

Upload Photos

1,892,642 photos uploaded!

WunderBlog® & News

Nearby

Air Quality

  Air Quality AQ Index Pollutant
Not available.

Snow Depth

Station Depth Elevation

Earthquake Activity

City Distance Mag. Time & Date
Minimum magnitude displayed is 2.5.

Coastal Water Temperatures

Place Temperature

Stations

Nearby Weather Stations

Station Location Temp. Windchill Dew Point Humidity Wind Precip. Elev Updated Type
                   

Watches & Warnings

Winter Weather Advisory
Issued: 11:37 AM CST Feb. 13, 2016 – National Weather Service

... Winter Weather Advisory remains in effect from 9 PM this
evening to 6 PM CST Sunday...

* timing... late evening and continuing through Sunday.

* Snow accumulations... 3 to 5 inches.

* Wind... southeast winds increasing tonight into Sunday morning
with gusts to 25 mph.

* Visibilities... less than a mile in heavier snow at times.

* Temperatures... in the single digits and teens tonight and in
the 20s on Sunday.

* Impacts... snow covered and hazardous roads and low visibility
in heavier snowfall.

Precautionary/preparedness actions...

A Winter Weather Advisory for snow means that periods of snow
will cause travel difficulties. Be prepared for slick... snow
covered roads and limited visibilities... and be careful while
driving.



Nichols